createdAt,value
2017-09-01T00:14:56.861Z,99.90
2017-09-01T00:17:25.818Z,99.90
2017-09-01T00:19:54.789Z,99.90
2017-09-01T00:22:23.756Z,99.90
2017-09-01T00:24:52.724Z,99.90
2017-09-01T00:27:31.932Z,99.90
2017-09-01T00:34:30.349Z,99.90
2017-09-01T00:36:59.334Z,99.90
2017-09-01T00:39:29.070Z,99.90
2017-09-01T00:51:07.045Z,99.90
2017-09-01T00:53:36.108Z,99.90
2017-09-01T00:56:05.128Z,99.90
2017-09-01T01:03:03.337Z,99.90
2017-09-01T01:05:32.383Z,99.90
2017-09-01T01:08:11.681Z,99.90
2017-09-01T01:20:01.071Z,99.90
2017-09-01T01:27:00.479Z,99.90
2017-09-01T01:29:29.597Z,99.90
2017-09-01T01:36:27.921Z,99.90
2017-09-01T01:38:57.068Z,99.90
2017-09-01T01:50:35.537Z,99.90
2017-09-01T01:53:14.806Z,99.90
2017-09-01T01:55:43.878Z,99.90
2017-09-01T01:58:12.959Z,99.90
2017-09-01T02:00:41.985Z,99.90
2017-09-01T02:03:11.734Z,99.90
2017-09-01T02:26:36.208Z,99.90
2017-09-01T02:29:16.266Z,99.90
2017-09-01T02:31:45.532Z,99.90
2017-09-01T02:34:14.695Z,99.90
2017-09-01T02:36:43.787Z,99.90
2017-09-01T02:39:12.918Z,99.90
2017-09-01T02:41:41.989Z,99.90
2017-09-01T02:48:40.617Z,99.90
2017-09-01T02:51:09.700Z,99.90
2017-09-01T02:53:49.124Z,99.90
2017-09-01T02:56:18.217Z,99.90
2017-09-01T02:58:47.313Z,99.90
2017-09-01T03:01:16.333Z,99.90
2017-09-01T03:03:55.648Z,99.90
2017-09-01T03:06:34.871Z,99.90
2017-09-01T03:22:32.061Z,99.90
2017-09-01T03:25:01.127Z,99.90
2017-09-01T03:27:40.489Z,99.90
2017-09-01T03:30:09.572Z,99.90
2017-09-01T03:32:38.663Z,99.90
2017-09-01T03:35:07.772Z,99.90
2017-09-01T03:37:36.839Z,99.90
2017-09-01T03:40:05.952Z,99.90
2017-09-01T03:42:45.310Z,99.90
2017-09-01T03:49:53.928Z,99.90
2017-09-01T03:57:02.667Z,99.90
2017-09-01T04:04:01.358Z,99.90
2017-09-01T04:06:30.375Z,99.90
2017-09-01T04:08:59.445Z,99.90
2017-09-01T04:11:28.543Z,99.90
2017-09-01T04:14:08.202Z,99.90
2017-09-01T04:21:16.743Z,99.90
2017-09-01T04:23:45.828Z,99.90
2017-09-01T04:35:13.303Z,99.90
2017-09-01T04:42:11.953Z,99.90
2017-09-01T04:44:41.171Z,99.90
2017-09-01T04:47:10.144Z,99.90
2017-09-01T04:49:39.935Z,99.90
2017-09-01T04:52:09.269Z,99.90
2017-09-01T04:54:38.268Z,99.90
2017-09-01T05:01:36.572Z,99.90
2017-09-01T05:08:34.697Z,99.90
2017-09-01T05:20:04.647Z,99.90
2017-09-01T05:22:33.707Z,99.90
2017-09-01T05:25:02.835Z,99.90
2017-09-01T05:27:33.242Z,99.90
2017-09-01T05:30:03.122Z,99.90
2017-09-01T05:32:33.759Z,99.90
2017-09-01T05:35:02.845Z,99.90
2017-09-01T05:37:32.045Z,99.90
2017-09-01T05:44:30.546Z,99.90
2017-09-01T05:47:00.361Z,99.90
2017-09-01T05:57:30.964Z,99.90
2017-09-01T06:00:00.019Z,99.90
2017-09-01T06:02:29.800Z,99.90
2017-09-01T06:04:58.869Z,99.90
2017-09-01T06:07:27.903Z,99.90
2017-09-01T06:09:56.883Z,99.90
2017-09-01T06:12:26.677Z,99.90
2017-09-01T06:14:56.449Z,99.90
2017-09-01T06:17:25.444Z,99.90
2017-09-01T06:19:54.442Z,99.90
2017-09-01T06:22:24.517Z,99.90
2017-09-01T06:24:53.572Z,99.90
2017-09-01T06:27:22.573Z,99.90
2017-09-01T06:29:51.659Z,99.90
2017-09-01T06:32:20.757Z,99.90
2017-09-01T06:34:50.162Z,99.90
2017-09-01T06:37:19.194Z,99.90
2017-09-01T06:39:48.510Z,99.90
2017-09-01T06:42:17.539Z,99.90
2017-09-01T06:49:16.004Z,99.90
2017-09-01T06:51:44.980Z,99.90
2017-09-01T06:54:14.031Z,99.90
2017-09-01T06:56:43.100Z,99.90
2017-09-01T06:59:12.333Z,99.90
2017-09-01T07:01:41.592Z,99.90
2017-09-01T07:04:11.266Z,99.90
2017-09-01T07:06:40.388Z,99.90
2017-09-01T07:09:09.375Z,99.90
2017-09-01T07:11:38.526Z,99.90
2017-09-01T07:14:07.586Z,99.90
2017-09-01T07:16:36.898Z,99.90
2017-09-01T07:19:05.949Z,99.90
2017-09-01T07:21:34.941Z,99.90
2017-09-01T07:24:04.777Z,99.90
2017-09-01T07:31:03.153Z,99.90
2017-09-01T07:38:03.071Z,99.90
2017-09-01T07:40:32.175Z,99.90
2017-09-01T07:43:01.789Z,99.90
2017-09-01T07:45:31.689Z,99.90
2017-09-01T07:48:01.013Z,99.90
2017-09-01T07:50:31.000Z,99.90
2017-09-01T07:52:59.977Z,99.90
2017-09-01T07:55:29.759Z,99.90
2017-09-01T07:57:58.810Z,99.90
2017-09-01T08:00:27.885Z,99.90
2017-09-01T08:02:56.928Z,99.90
2017-09-01T08:05:25.968Z,99.90
2017-09-01T08:07:55.113Z,99.90
2017-09-01T08:10:25.184Z,99.90
2017-09-01T08:12:54.241Z,99.90
2017-09-01T08:15:23.208Z,99.90
2017-09-01T08:22:21.570Z,99.90
2017-09-01T08:29:20.183Z,99.90
2017-09-01T08:31:49.240Z,99.90
2017-09-01T08:34:18.251Z,99.90
2017-09-01T08:36:47.466Z,99.90
2017-09-01T08:39:16.470Z,99.90
2017-09-01T08:41:45.494Z,99.90
2017-09-01T08:44:15.832Z,99.90
2017-09-01T08:46:48.588Z,99.90
2017-09-01T08:49:18.003Z,99.90
2017-09-01T08:51:47.093Z,99.90
2017-09-01T08:54:16.462Z,99.90
2017-09-01T08:56:45.446Z,99.90
2017-09-01T08:59:14.447Z,99.90
2017-09-01T09:01:43.522Z,99.90
2017-09-01T09:04:12.608Z,99.90
2017-09-01T09:06:41.661Z,99.90
2017-09-01T09:12:42.939Z,99.90
2017-09-01T09:15:12.853Z,99.90
2017-09-01T09:17:42.738Z,99.90
2017-09-01T09:20:11.836Z,99.90
2017-09-01T09:22:40.981Z,99.90
2017-09-01T09:25:10.117Z,99.90
2017-09-01T09:27:40.013Z,99.90
2017-09-01T09:30:09.313Z,99.90
2017-09-01T09:32:38.561Z,99.90
2017-09-01T09:35:08.663Z,99.90
2017-09-01T09:37:38.882Z,99.90
2017-09-01T09:40:09.056Z,99.90
2017-09-01T09:42:38.366Z,99.90
2017-09-01T09:49:37.067Z,99.90
2017-09-01T09:52:06.846Z,99.90
2017-09-01T09:54:35.977Z,99.90
2017-09-01T09:57:05.037Z,99.90
2017-09-01T09:59:34.086Z,99.90
2017-09-01T10:02:14.122Z,99.90
2017-09-01T10:04:43.342Z,99.90
2017-09-01T10:07:12.334Z,99.30
2017-09-01T10:09:41.402Z,99.70
2017-09-01T10:12:10.451Z,98.00
2017-09-01T10:14:39.460Z,97.50
2017-09-01T10:17:08.554Z,99.40
2017-09-01T10:19:37.630Z,98.80
2017-09-01T10:22:07.792Z,98.40
2017-09-01T10:27:12.914Z,95.40
2017-09-01T10:29:45.588Z,96.10
2017-09-01T10:32:15.053Z,96.10
2017-09-01T10:34:44.868Z,98.20
2017-09-01T10:37:14.452Z,97.70
2017-09-01T10:39:43.672Z,99.90
2017-09-01T10:42:27.550Z,97.90
2017-09-01T10:44:56.728Z,98.70
2017-09-01T10:47:36.143Z,97.10
2017-09-01T10:50:17.115Z,99.00
2017-09-01T10:54:58.015Z,98.90
2017-09-01T10:58:40.036Z,98.50
2017-09-01T11:01:09.081Z,98.00
2017-09-01T11:03:38.947Z,97.90
2017-09-01T11:06:09.631Z,96.40
2017-09-01T11:08:38.646Z,96.30
2017-09-01T11:11:07.796Z,97.60
2017-09-01T11:13:36.908Z,94.70
2017-09-01T11:16:33.604Z,95.20
2017-09-01T11:19:07.403Z,96.90
2017-09-01T11:23:54.823Z,95.60
2017-09-01T11:26:27.717Z,93.20
2017-09-01T11:28:56.821Z,93.90
2017-09-01T11:31:25.869Z,90.70
2017-09-01T11:33:55.719Z,91.60
2017-09-01T11:36:34.367Z,91.60
2017-09-01T11:39:03.811Z,92.70
2017-09-01T11:41:32.999Z,92.70
2017-09-01T11:44:02.911Z,93.30
2017-09-01T11:46:37.529Z,89.10
2017-09-01T11:49:07.433Z,87.40
2017-09-01T11:51:36.773Z,87.30
2017-09-01T11:54:06.658Z,85.90
2017-09-01T11:56:35.705Z,85.80
2017-09-01T11:59:04.698Z,89.30
2017-09-01T12:05:05.139Z,87.90
2017-09-01T12:07:35.151Z,88.00
2017-09-01T12:10:04.357Z,87.90
2017-09-01T12:12:33.577Z,90.00
2017-09-01T12:15:16.998Z,90.20
2017-09-01T12:17:46.223Z,90.20
2017-09-01T12:20:15.308Z,90.80
2017-09-01T12:22:45.206Z,90.20
2017-09-01T12:25:15.058Z,89.30
2017-09-01T12:27:44.861Z,89.90
2017-09-01T12:30:13.924Z,89.90
2017-09-01T12:32:43.074Z,88.00
2017-09-01T12:35:13.365Z,88.70
2017-09-01T12:37:43.899Z,88.80
2017-09-01T12:40:13.271Z,90.20
2017-09-01T12:42:43.996Z,91.40
2017-09-01T12:45:13.925Z,91.60
2017-09-01T12:47:43.024Z,91.60
2017-09-01T12:50:26.747Z,92.00
2017-09-01T12:52:56.577Z,92.20
2017-09-01T12:55:28.285Z,90.70
2017-09-01T12:57:57.349Z,90.50
2017-09-01T13:00:26.390Z,87.50
2017-09-01T13:02:56.252Z,89.60
2017-09-01T13:05:26.020Z,88.30
2017-09-01T13:07:55.493Z,88.20
2017-09-01T13:10:24.579Z,90.20
2017-09-01T13:12:54.501Z,90.70
2017-09-01T13:15:23.562Z,90.40
2017-09-01T13:17:52.695Z,90.50
2017-09-01T13:20:22.511Z,90.60
2017-09-01T13:22:52.367Z,90.60
2017-09-01T13:25:21.951Z,90.60
2017-09-01T13:27:51.470Z,89.60
2017-09-01T13:30:23.228Z,88.40
2017-09-01T13:32:53.997Z,84.20
2017-09-01T13:39:53.977Z,91.20
2017-09-01T13:42:23.794Z,87.90
2017-09-01T13:44:57.780Z,90.20
2017-09-01T13:47:27.417Z,90.20
2017-09-01T13:49:56.752Z,90.40
2017-09-01T13:52:25.909Z,87.80
2017-09-01T13:54:55.121Z,87.60
2017-09-01T13:57:24.369Z,82.20
2017-09-01T13:59:53.565Z,86.30
2017-09-01T14:02:22.689Z,85.70
2017-09-01T14:04:52.142Z,84.30
2017-09-01T14:07:26.057Z,85.80
2017-09-01T14:09:55.158Z,87.40
2017-09-01T14:12:24.381Z,85.30
2017-09-01T14:14:53.498Z,81.20
2017-09-01T14:17:22.691Z,85.00
2017-09-01T14:24:23.626Z,85.80
2017-09-01T14:26:53.394Z,85.80
2017-09-01T14:29:26.528Z,89.60
2017-09-01T14:31:56.682Z,89.40
2017-09-01T14:34:26.940Z,88.40
2017-09-01T14:36:56.321Z,88.40
2017-09-01T14:39:25.406Z,90.40
2017-09-01T14:41:55.324Z,91.20
2017-09-01T14:44:25.501Z,91.10
2017-09-01T14:46:54.924Z,88.50
2017-09-01T14:49:25.281Z,90.60
2017-09-01T14:51:54.376Z,90.60
2017-09-01T14:54:24.324Z,91.40
2017-09-01T14:56:53.799Z,91.40
2017-09-01T14:59:24.378Z,87.50
2017-09-01T15:01:53.775Z,87.20
2017-09-01T15:04:23.252Z,87.40
2017-09-01T15:06:53.290Z,93.20
2017-09-01T15:09:22.455Z,93.10
2017-09-01T15:11:51.470Z,90.30
2017-09-01T15:14:20.583Z,91.80
2017-09-01T15:16:50.395Z,92.70
2017-09-01T15:19:19.499Z,92.70
2017-09-01T15:21:48.725Z,91.80
2017-09-01T15:24:17.821Z,92.90
2017-09-01T15:26:46.868Z,93.60
2017-09-01T15:29:16.761Z,91.90
2017-09-01T15:31:45.920Z,91.90
2017-09-01T15:34:16.852Z,91.30
2017-09-01T15:36:45.915Z,92.30
2017-09-01T15:39:15.069Z,92.30
2017-09-01T15:41:44.862Z,93.20
2017-09-01T15:44:14.681Z,91.10
2017-09-01T15:46:44.674Z,92.10
2017-09-01T15:49:14.214Z,92.10
2017-09-01T15:51:44.156Z,92.90
2017-09-01T15:54:14.042Z,92.70
2017-09-01T15:56:44.179Z,93.40
2017-09-01T15:59:13.478Z,93.40
2017-09-01T16:01:43.313Z,91.90
2017-09-01T16:04:12.424Z,91.90
2017-09-01T16:06:41.540Z,92.20
2017-09-01T16:09:11.670Z,93.60
2017-09-01T16:11:42.333Z,93.60
2017-09-01T16:14:12.762Z,92.50
2017-09-01T16:16:42.588Z,92.50
2017-09-01T16:19:11.653Z,92.10
2017-09-01T16:21:41.761Z,92.00
2017-09-01T16:24:11.746Z,91.90
2017-09-01T16:26:41.213Z,90.30
2017-09-01T16:29:10.266Z,92.40
2017-09-01T16:31:39.846Z,91.20
2017-09-01T16:34:08.943Z,91.60
2017-09-01T16:36:39.283Z,92.10
2017-09-01T16:39:08.384Z,92.40
2017-09-01T16:41:37.442Z,92.80
2017-09-01T16:44:06.537Z,93.50
2017-09-01T16:46:36.631Z,94.40
2017-09-01T16:49:06.090Z,94.40
2017-09-01T16:51:35.223Z,94.50
2017-09-01T16:54:04.369Z,96.00
2017-09-01T16:56:34.324Z,95.70
2017-09-01T16:59:05.090Z,95.70
2017-09-01T17:01:35.026Z,96.80
2017-09-01T17:04:05.424Z,96.70
2017-09-01T17:06:34.943Z,96.90
2017-09-01T17:11:52.936Z,98.70
2017-09-01T17:14:25.974Z,98.00
2017-09-01T17:16:56.867Z,98.50
2017-09-01T17:19:32.839Z,98.00
2017-09-01T17:22:04.375Z,98.60
2017-09-01T17:24:33.467Z,98.50
2017-09-01T17:27:04.518Z,99.00
2017-09-01T17:29:33.688Z,99.90
2017-09-01T17:32:04.093Z,99.90
2017-09-01T17:34:39.959Z,99.90
2017-09-01T17:37:09.232Z,99.90
2017-09-01T17:39:38.378Z,99.90
2017-09-01T17:42:10.402Z,99.90
2017-09-01T17:44:45.898Z,99.90
2017-09-01T17:47:17.862Z,99.90
2017-09-01T17:49:56.352Z,99.90
2017-09-01T17:52:27.562Z,99.90
2017-09-01T17:54:56.862Z,99.90
2017-09-01T17:57:26.206Z,99.90
2017-09-01T17:59:55.274Z,99.90
2017-09-01T18:02:24.513Z,99.90
2017-09-01T18:04:53.825Z,99.90
2017-09-01T18:07:25.534Z,99.90
2017-09-01T18:10:02.400Z,99.90
2017-09-01T18:12:33.909Z,99.90
2017-09-01T18:15:03.115Z,99.90
2017-09-01T18:17:34.104Z,99.90
2017-09-01T18:20:04.278Z,99.90
2017-09-01T18:22:36.403Z,99.90
2017-09-01T18:25:05.543Z,99.90
2017-09-01T18:27:36.318Z,99.90
2017-09-01T18:30:05.812Z,99.90
2017-09-01T18:32:37.263Z,99.90
2017-09-01T18:35:07.574Z,99.90
2017-09-01T18:37:39.541Z,99.90
2017-09-01T18:40:09.335Z,99.90
2017-09-01T18:42:39.429Z,99.90
2017-09-01T18:45:14.715Z,99.90
2017-09-01T18:47:45.346Z,99.90
2017-09-01T18:50:21.380Z,99.90
2017-09-01T18:52:53.572Z,99.90
2017-09-01T18:55:23.672Z,99.90
2017-09-01T18:57:53.225Z,99.90
2017-09-01T19:00:22.620Z,99.90
2017-09-01T19:02:53.746Z,99.90
2017-09-01T19:05:24.167Z,99.90
2017-09-01T19:07:55.115Z,99.90
2017-09-01T19:10:26.069Z,99.90
2017-09-01T19:12:56.065Z,99.90
2017-09-01T19:15:25.790Z,99.90
2017-09-01T19:17:56.698Z,99.90
2017-09-01T19:20:26.088Z,99.90
2017-09-01T19:22:56.770Z,99.90
2017-09-01T19:25:25.901Z,99.90
2017-09-01T19:27:56.740Z,99.90
2017-09-01T19:30:27.402Z,99.90
2017-09-01T19:32:58.298Z,99.90
2017-09-01T19:35:27.433Z,99.90
2017-09-01T19:37:58.664Z,99.90
2017-09-01T19:40:30.096Z,99.90
2017-09-01T19:43:00.066Z,99.90
2017-09-01T19:45:29.168Z,99.90
2017-09-01T19:47:59.508Z,99.90
2017-09-01T19:50:28.640Z,99.90
2017-09-01T19:52:59.434Z,99.90
2017-09-01T19:55:28.539Z,99.90
2017-09-01T19:57:58.593Z,99.90
2017-09-01T20:00:28.910Z,99.90
2017-09-01T20:02:59.776Z,99.90
2017-09-01T20:05:30.066Z,99.90
2017-09-01T20:08:02.415Z,99.90
2017-09-01T20:10:32.461Z,99.90
2017-09-01T20:13:03.203Z,99.90
2017-09-01T20:15:34.159Z,99.90
2017-09-01T20:18:04.515Z,99.90
2017-09-01T20:20:33.682Z,99.90
2017-09-01T20:23:05.858Z,99.90
2017-09-01T20:25:35.216Z,99.90
2017-09-01T20:28:06.039Z,99.90
2017-09-01T20:30:36.503Z,99.90
2017-09-01T20:33:06.488Z,99.90
2017-09-01T20:35:37.357Z,99.90
2017-09-01T20:38:09.096Z,99.90
2017-09-01T20:40:41.664Z,99.90
2017-09-01T20:43:10.678Z,99.90
2017-09-01T20:45:39.834Z,99.90
2017-09-01T20:48:09.200Z,99.90
2017-09-01T20:50:38.305Z,99.90
2017-09-01T20:53:07.345Z,99.90
2017-09-01T20:55:36.456Z,99.90
2017-09-01T20:58:08.136Z,99.90
2017-09-01T21:00:37.599Z,99.90
2017-09-01T21:03:08.131Z,99.90
2017-09-01T21:05:38.985Z,99.90
2017-09-01T21:08:08.883Z,99.90
2017-09-01T21:10:38.187Z,99.90
2017-09-01T21:13:08.181Z,99.90
2017-09-01T21:15:38.210Z,99.90
2017-09-01T21:18:20.171Z,99.90
2017-09-01T21:20:49.944Z,99.90
2017-09-01T21:23:19.836Z,99.90
2017-09-01T21:25:49.747Z,99.90
2017-09-01T21:28:19.120Z,99.90
2017-09-01T21:30:49.058Z,99.90
2017-09-01T21:33:18.129Z,99.90
2017-09-01T21:35:47.711Z,99.90
2017-09-01T21:38:16.757Z,99.90
2017-09-01T21:40:45.863Z,99.90
2017-09-01T21:43:15.125Z,99.90
2017-09-01T21:45:44.145Z,99.90
2017-09-01T21:48:15.056Z,99.90
2017-09-01T21:50:44.285Z,99.90
2017-09-01T21:53:14.730Z,99.90
2017-09-01T21:55:43.795Z,99.90
2017-09-01T21:58:12.845Z,99.90
2017-09-01T22:00:50.606Z,99.90
2017-09-01T22:03:20.493Z,99.90
2017-09-01T22:05:49.557Z,99.90
2017-09-01T22:08:18.667Z,99.90
2017-09-01T22:10:47.754Z,99.90
2017-09-01T22:14:19.462Z,99.90
2017-09-01T22:16:48.545Z,99.90
2017-09-01T22:19:21.819Z,99.90
2017-09-01T22:21:50.901Z,99.90
2017-09-01T22:24:20.273Z,99.90
2017-09-01T22:26:49.705Z,99.90
2017-09-01T22:29:18.695Z,99.90
2017-09-01T22:34:23.035Z,99.90
2017-09-01T22:36:52.020Z,99.90
2017-09-01T22:39:21.042Z,99.90
2017-09-01T22:41:50.061Z,99.90
2017-09-01T22:44:19.060Z,99.90
2017-09-01T22:46:48.807Z,99.90
2017-09-01T22:49:17.802Z,99.90
2017-09-01T22:51:46.750Z,99.90
2017-09-01T22:54:24.506Z,99.90
2017-09-01T22:56:53.541Z,99.90
2017-09-01T22:59:22.477Z,99.90
2017-09-01T23:01:51.508Z,99.90
2017-09-01T23:04:20.455Z,99.90
2017-09-01T23:06:49.408Z,99.90
2017-09-01T23:09:18.450Z,99.90
2017-09-01T23:11:47.540Z,99.90
2017-09-01T23:14:16.494Z,99.90
2017-09-01T23:16:45.487Z,99.90
2017-09-01T23:19:14.495Z,99.90
2017-09-01T23:21:43.602Z,99.90
2017-09-01T23:24:12.598Z,99.90
2017-09-01T23:26:41.552Z,99.90
2017-09-01T23:29:10.530Z,99.90
2017-09-01T23:31:39.540Z,99.90
2017-09-01T23:34:08.510Z,99.90
2017-09-01T23:36:38.290Z,99.90
2017-09-01T23:39:07.307Z,99.90
2017-09-01T23:41:37.030Z,99.90
2017-09-01T23:44:05.985Z,99.90
2017-09-01T23:46:34.967Z,99.90
2017-09-01T23:49:04.706Z,99.90
2017-09-01T23:51:33.718Z,99.90
2017-09-01T23:54:02.677Z,99.90
2017-09-01T23:56:31.600Z,99.90
2017-09-01T23:59:00.561Z,99.90
